createdAt,value
2022-08-29T00:00:18.238Z,6.63
2022-08-29T00:02:50.888Z,7.97
2022-08-29T00:05:24.955Z,11.38
2022-08-29T00:07:52.101Z,11.85
2022-08-29T00:10:18.649Z,9.30
2022-08-29T00:12:45.152Z,8.98
2022-08-29T00:15:12.601Z,10.98
2022-08-29T00:17:39.053Z,10.00
2022-08-29T00:20:08.590Z,10.45
2022-08-29T00:22:35.183Z,10.82
2022-08-29T00:25:04.751Z,10.43
2022-08-29T00:27:34.773Z,8.30
2022-08-29T00:30:01.785Z,9.63
2022-08-29T00:32:34.819Z,7.68
2022-08-29T00:35:03.513Z,7.45
2022-08-29T00:37:31.022Z,8.50
2022-08-29T00:39:57.487Z,8.65
2022-08-29T00:42:24.893Z,7.93
2022-08-29T00:44:51.951Z,9.38
2022-08-29T00:47:23.018Z,11.23
2022-08-29T00:49:53.047Z,10.10
2022-08-29T00:52:28.470Z,8.00
2022-08-29T00:54:56.159Z,6.68
2022-08-29T00:57:24.630Z,8.13
2022-08-29T00:59:51.968Z,8.93
2022-08-29T01:02:19.204Z,11.43
2022-08-29T01:04:46.290Z,8.43
2022-08-29T01:07:12.890Z,12.73
2022-08-29T01:09:42.440Z,8.93
2022-08-29T01:12:17.858Z,6.65
2022-08-29T01:14:53.795Z,8.25
2022-08-29T01:17:35.066Z,12.23
2022-08-29T01:20:19.312Z,8.13
2022-08-29T01:22:48.772Z,12.35
2022-08-29T01:25:22.634Z,8.48
2022-08-29T01:27:59.405Z,9.27
2022-08-29T01:30:25.882Z,8.13
2022-08-29T01:32:52.543Z,8.98
2022-08-29T01:35:19.033Z,10.52
2022-08-29T01:37:45.591Z,7.55
2022-08-29T01:40:13.282Z,7.75
2022-08-29T01:42:39.981Z,8.10
2022-08-29T01:45:09.738Z,9.75
2022-08-29T01:47:38.722Z,7.03
2022-08-29T01:50:12.702Z,10.13
2022-08-29T01:52:39.295Z,8.27
2022-08-29T01:55:06.040Z,9.48
2022-08-29T01:57:32.566Z,7.85
2022-08-29T01:59:59.386Z,10.07
2022-08-29T02:02:29.111Z,8.68
2022-08-29T02:04:58.545Z,7.28
2022-08-29T02:07:26.357Z,8.43
2022-08-29T02:09:53.668Z,9.27
2022-08-29T02:12:20.799Z,6.38
2022-08-29T02:14:47.605Z,8.75
2022-08-29T02:17:14.233Z,7.53
2022-08-29T02:19:41.530Z,10.23
2022-08-29T02:22:09.596Z,8.70
2022-08-29T02:24:36.507Z,11.63
2022-08-29T02:27:03.962Z,9.43
2022-08-29T02:29:30.819Z,11.48
2022-08-29T02:32:11.256Z,8.23
2022-08-29T02:34:38.129Z,10.85
2022-08-29T02:37:05.904Z,8.15
2022-08-29T02:39:32.465Z,7.45
2022-08-29T02:41:58.870Z,7.50
2022-08-29T02:44:25.265Z,6.18
2022-08-29T02:46:51.757Z,8.18
2022-08-29T02:49:18.300Z,8.10
2022-08-29T02:51:45.090Z,7.97
2022-08-29T02:54:12.531Z,8.15
2022-08-29T02:56:39.906Z,10.10
2022-08-29T02:59:08.304Z,10.98
2022-08-29T03:01:36.224Z,6.75
2022-08-29T03:04:03.167Z,7.57
2022-08-29T03:06:29.653Z,6.13
2022-08-29T03:08:56.253Z,7.13
2022-08-29T03:11:23.985Z,6.15
2022-08-29T03:13:50.477Z,5.30
2022-08-29T03:16:18.242Z,6.07
2022-08-29T03:18:44.678Z,6.07
2022-08-29T03:21:19.660Z,5.97
2022-08-29T03:23:46.689Z,6.70
2022-08-29T03:26:13.153Z,7.50
2022-08-29T03:28:39.568Z,7.28
2022-08-29T03:31:06.748Z,10.73
2022-08-29T03:33:33.517Z,10.13
2022-08-29T03:35:59.989Z,5.50
2022-08-29T03:38:26.596Z,10.07
2022-08-29T03:40:53.430Z,6.68
2022-08-29T03:43:24.538Z,8.75
2022-08-29T03:45:51.364Z,9.75
2022-08-29T03:48:17.880Z,6.32
2022-08-29T03:50:44.397Z,6.60
2022-08-29T03:53:10.813Z,5.95
2022-08-29T03:55:38.253Z,7.15
2022-08-29T03:58:04.928Z,7.18
2022-08-29T04:00:31.582Z,9.00
2022-08-29T04:02:59.045Z,7.18
2022-08-29T04:05:25.644Z,6.82
2022-08-29T04:07:55.471Z,6.10
2022-08-29T04:10:30.839Z,6.10
2022-08-29T04:12:57.865Z,8.30
2022-08-29T04:15:26.324Z,4.70
2022-08-29T04:17:55.229Z,6.40
2022-08-29T04:20:25.704Z,6.18
2022-08-29T04:22:54.439Z,9.13
2022-08-29T04:25:22.346Z,10.27
2022-08-29T04:27:49.480Z,8.73
2022-08-29T04:30:22.554Z,11.50
2022-08-29T04:32:50.108Z,11.05
2022-08-29T04:35:16.966Z,13.32
2022-08-29T04:37:44.396Z,12.05
2022-08-29T04:40:15.700Z,12.30
2022-08-29T04:42:42.818Z,21.17
2022-08-29T04:45:14.370Z,11.35
2022-08-29T04:47:42.142Z,9.32
2022-08-29T04:50:12.136Z,11.00
2022-08-29T04:52:39.099Z,11.75
2022-08-29T04:55:07.601Z,10.93
2022-08-29T04:57:35.587Z,9.05
2022-08-29T05:00:02.879Z,9.15
2022-08-29T05:02:29.347Z,16.88
2022-08-29T05:04:56.702Z,11.45
2022-08-29T05:07:25.772Z,17.10
2022-08-29T05:10:01.303Z,15.00
2022-08-29T05:12:29.490Z,11.55
2022-08-29T05:14:56.545Z,12.50
2022-08-29T05:17:23.726Z,20.70
2022-08-29T05:19:50.481Z,11.65
2022-08-29T05:22:18.402Z,14.65
2022-08-29T05:24:44.884Z,23.98
2022-08-29T05:27:16.758Z,14.27
2022-08-29T05:29:45.183Z,14.00
2022-08-29T05:32:14.567Z,11.38
2022-08-29T05:34:42.767Z,11.20
2022-08-29T05:37:12.893Z,11.05
2022-08-29T05:39:40.138Z,10.57
2022-08-29T05:42:07.673Z,11.73
2022-08-29T05:44:35.708Z,9.57
2022-08-29T05:47:04.383Z,10.15
2022-08-29T05:49:30.851Z,10.57
2022-08-29T05:51:57.466Z,11.52
2022-08-29T05:54:24.840Z,10.60
2022-08-29T05:56:56.584Z,9.45
2022-08-29T05:59:22.998Z,13.93
2022-08-29T06:01:49.500Z,7.75
2022-08-29T06:04:16.152Z,7.55
2022-08-29T06:06:42.750Z,8.60
2022-08-29T06:09:09.306Z,7.45
2022-08-29T06:11:35.725Z,8.23
2022-08-29T06:14:02.184Z,10.00
2022-08-29T06:16:29.876Z,10.98
2022-08-29T06:18:56.878Z,9.98
2022-08-29T06:21:23.349Z,8.27
2022-08-29T06:23:50.178Z,8.35
2022-08-29T06:26:17.096Z,7.50
2022-08-29T06:28:45.930Z,8.32
2022-08-29T06:31:16.775Z,8.73
2022-08-29T06:33:43.640Z,8.13
2022-08-29T06:36:11.030Z,8.55
2022-08-29T06:38:37.450Z,8.85
2022-08-29T06:41:10.177Z,7.00
2022-08-29T06:43:37.509Z,6.50
2022-08-29T06:46:04.295Z,7.07
2022-08-29T06:48:31.082Z,7.75
2022-08-29T06:51:00.127Z,10.07
2022-08-29T06:53:31.985Z,6.85
2022-08-29T06:56:06.872Z,8.07
2022-08-29T06:58:38.204Z,8.43
2022-08-29T07:01:12.870Z,11.43
2022-08-29T07:03:41.014Z,6.95
2022-08-29T07:06:08.533Z,8.00
2022-08-29T07:08:35.814Z,6.43
2022-08-29T07:11:02.747Z,9.77
2022-08-29T07:13:29.209Z,8.80
2022-08-29T07:15:55.692Z,9.43
2022-08-29T07:18:22.125Z,7.93
2022-08-29T07:20:49.188Z,7.88
2022-08-29T07:23:16.221Z,7.70
2022-08-29T07:25:42.814Z,7.50
2022-08-29T07:28:09.226Z,7.50
2022-08-29T07:30:37.406Z,8.30
2022-08-29T07:33:03.885Z,8.32
2022-08-29T07:35:31.018Z,9.25
2022-08-29T07:38:03.540Z,7.50
2022-08-29T07:40:30.429Z,7.70
2022-08-29T07:42:56.905Z,7.72
2022-08-29T07:45:23.369Z,9.68
2022-08-29T07:47:49.796Z,7.85
2022-08-29T07:50:17.027Z,6.80
2022-08-29T07:52:43.598Z,12.98
2022-08-29T07:55:10.234Z,6.35
2022-08-29T07:57:36.949Z,7.03
2022-08-29T08:00:09.824Z,8.68
2022-08-29T08:02:36.336Z,9.10
2022-08-29T08:05:02.825Z,7.63
2022-08-29T08:07:40.430Z,7.43
2022-08-29T08:10:07.970Z,7.45
2022-08-29T08:12:34.407Z,6.72
2022-08-29T08:15:00.938Z,5.50
2022-08-29T08:17:27.439Z,6.80
2022-08-29T08:19:53.847Z,6.43
2022-08-29T08:22:20.250Z,6.72
2022-08-29T08:24:48.436Z,7.03
2022-08-29T08:27:14.841Z,8.90
2022-08-29T08:29:41.246Z,7.80
2022-08-29T08:32:07.653Z,8.52
2022-08-29T08:34:35.735Z,8.23
2022-08-29T08:37:07.420Z,7.45
2022-08-29T08:39:34.385Z,8.50
2022-08-29T08:42:05.736Z,8.10
2022-08-29T08:45:00.887Z,7.32
2022-08-29T08:47:37.556Z,7.30
2022-08-29T08:50:07.722Z,12.43
2022-08-29T08:52:44.168Z,7.70
2022-08-29T08:58:10.330Z,8.85
2022-08-29T09:00:44.129Z,7.15
2022-08-29T09:03:41.642Z,8.18
2022-08-29T09:08:57.182Z,9.35
2022-08-29T09:11:38.578Z,7.90
2022-08-29T09:14:23.858Z,8.23
2022-08-29T09:16:55.917Z,10.23
2022-08-29T09:19:22.628Z,10.32
2022-08-29T09:21:55.413Z,9.38
2022-08-29T09:24:44.183Z,8.55
2022-08-29T09:27:23.153Z,9.70
2022-08-29T09:30:10.846Z,8.25
2022-08-29T09:32:58.272Z,9.85
2022-08-29T09:35:34.655Z,9.70
2022-08-29T09:40:54.437Z,8.73
2022-08-29T09:43:43.861Z,7.75
2022-08-29T09:46:19.104Z,7.13
2022-08-29T09:48:52.056Z,6.30
2022-08-29T09:51:24.473Z,8.20
2022-08-29T09:54:10.272Z,8.95
2022-08-29T09:56:40.217Z,6.45
2022-08-29T09:59:22.469Z,9.18
2022-08-29T10:01:49.337Z,8.35
2022-08-29T10:04:37.466Z,7.25
2022-08-29T10:07:28.084Z,10.83
2022-08-29T10:09:54.881Z,8.30
2022-08-29T10:12:33.041Z,5.20
2022-08-29T10:15:04.693Z,9.13
2022-08-29T10:18:19.833Z,7.70
2022-08-29T10:21:07.906Z,6.68
2022-08-29T10:23:45.563Z,7.65
2022-08-29T10:26:28.132Z,8.95
2022-08-29T10:29:31.615Z,7.45
2022-08-29T10:32:05.099Z,8.05
2022-08-29T10:34:31.485Z,6.22
2022-08-29T10:37:09.276Z,6.82
2022-08-29T10:40:02.163Z,5.28
2022-08-29T10:42:31.827Z,5.35
2022-08-29T10:45:15.097Z,4.63
2022-08-29T10:47:52.363Z,7.47
2022-08-29T10:50:48.078Z,7.78
2022-08-29T10:53:38.382Z,8.82
2022-08-29T10:56:16.063Z,4.95
2022-08-29T10:59:18.487Z,6.10
2022-08-29T11:02:05.759Z,5.43
2022-08-29T11:04:45.410Z,6.22
2022-08-29T11:07:16.288Z,5.57
2022-08-29T11:09:47.400Z,7.78
2022-08-29T11:12:33.234Z,8.23
2022-08-29T11:15:15.341Z,7.17
2022-08-29T11:17:44.427Z,4.70
2022-08-29T11:20:21.564Z,5.28
2022-08-29T11:22:58.175Z,6.90
2022-08-29T11:25:24.738Z,7.70
2022-08-29T11:28:04.073Z,5.82
2022-08-29T11:30:51.966Z,6.68
2022-08-29T11:33:37.072Z,4.53
2022-08-29T11:36:12.534Z,7.93
2022-08-29T11:39:03.645Z,7.03
2022-08-29T11:41:35.425Z,5.75
2022-08-29T11:44:23.800Z,6.53
2022-08-29T11:46:53.501Z,5.85
2022-08-29T11:49:36.973Z,7.50
2022-08-29T11:52:10.823Z,6.28
2022-08-29T11:54:37.398Z,6.07
2022-08-29T11:57:04.065Z,7.65
2022-08-29T11:59:48.907Z,5.10
2022-08-29T12:02:27.555Z,4.25
2022-08-29T12:05:07.170Z,5.97
2022-08-29T12:07:44.437Z,7.70
2022-08-29T12:10:33.059Z,5.45
2022-08-29T12:13:01.813Z,6.07
2022-08-29T12:15:34.400Z,6.18
2022-08-29T12:18:04.122Z,6.97
2022-08-29T12:20:30.803Z,4.82
2022-08-29T12:23:06.045Z,5.07
2022-08-29T12:26:09.632Z,8.52
2022-08-29T12:28:58.077Z,6.53
2022-08-29T12:31:36.871Z,4.13
2022-08-29T12:34:18.725Z,4.13
2022-08-29T12:37:11.675Z,5.57
2022-08-29T12:39:59.251Z,4.88
2022-08-29T12:42:58.714Z,4.07
2022-08-29T12:45:28.066Z,5.63
2022-08-29T12:47:58.802Z,6.00
2022-08-29T12:50:35.878Z,7.95
2022-08-29T12:53:07.642Z,4.72
2022-08-29T12:55:43.476Z,5.85
2022-08-29T12:58:12.535Z,5.13
2022-08-29T13:00:40.062Z,4.72
2022-08-29T13:03:19.211Z,6.35
2022-08-29T13:05:46.330Z,5.88
2022-08-29T13:08:27.767Z,7.00
2022-08-29T13:11:04.325Z,5.40
2022-08-29T13:13:30.854Z,7.90
2022-08-29T13:16:01.449Z,7.18
2022-08-29T13:18:30.013Z,5.53
2022-08-29T13:21:19.342Z,4.20
2022-08-29T13:23:57.603Z,6.70
2022-08-29T13:26:27.651Z,4.95
2022-08-29T13:29:15.174Z,5.65
2022-08-29T13:31:42.268Z,4.30
2022-08-29T13:34:19.353Z,5.32
2022-08-29T13:36:45.716Z,4.13
2022-08-29T13:39:18.940Z,8.07
2022-08-29T13:41:49.200Z,5.38
2022-08-29T13:44:30.212Z,5.63
2022-08-29T13:47:00.843Z,6.85
2022-08-29T13:49:32.760Z,5.78
2022-08-29T13:52:00.353Z,6.15
2022-08-29T13:54:30.343Z,5.22
2022-08-29T13:56:58.129Z,4.75
2022-08-29T13:59:27.506Z,4.38
2022-08-29T14:02:10.975Z,7.53
2022-08-29T14:04:39.870Z,4.50
2022-08-29T14:07:09.481Z,6.32
2022-08-29T14:09:39.371Z,4.40
2022-08-29T14:12:07.166Z,3.92
2022-08-29T14:14:33.694Z,4.57
2022-08-29T14:17:00.650Z,5.25
2022-08-29T14:19:28.765Z,6.32
2022-08-29T14:21:55.726Z,4.25
2022-08-29T14:24:22.718Z,6.40
2022-08-29T14:27:01.995Z,5.93
2022-08-29T14:29:33.184Z,4.53
2022-08-29T14:32:03.006Z,4.85
2022-08-29T14:34:32.420Z,4.85
2022-08-29T14:36:59.860Z,7.40
2022-08-29T14:39:26.615Z,4.93
2022-08-29T14:41:54.124Z,6.93
2022-08-29T14:44:21.829Z,3.65
2022-08-29T14:46:48.592Z,4.13
2022-08-29T14:49:15.214Z,6.25
2022-08-29T14:51:42.047Z,5.75
2022-08-29T14:54:08.515Z,7.32
2022-08-29T14:56:48.295Z,7.38
2022-08-29T14:59:16.142Z,4.32
2022-08-29T15:01:42.777Z,6.65
2022-08-29T15:04:09.290Z,5.53
2022-08-29T15:06:37.539Z,4.28
2022-08-29T15:09:04.095Z,7.43
2022-08-29T15:11:31.323Z,4.82
2022-08-29T15:14:03.532Z,5.38
2022-08-29T15:16:31.765Z,6.53
2022-08-29T15:21:44.761Z,6.68
2022-08-29T15:24:11.204Z,4.00
2022-08-29T15:26:37.658Z,3.83
2022-08-29T15:29:04.486Z,4.53
2022-08-29T15:31:31.130Z,5.38
2022-08-29T15:33:58.139Z,4.50
2022-08-29T15:36:24.718Z,6.18
2022-08-29T15:38:51.167Z,4.93
2022-08-29T15:41:17.662Z,6.38
2022-08-29T15:43:44.080Z,6.68
2022-08-29T15:46:11.035Z,6.53
2022-08-29T15:48:37.499Z,4.22
2022-08-29T15:51:04.466Z,6.78
2022-08-29T15:53:30.958Z,5.95
2022-08-29T15:55:57.422Z,5.30
2022-08-29T15:58:23.813Z,6.45
2022-08-29T16:00:50.312Z,7.03
2022-08-29T16:03:16.770Z,4.40
2022-08-29T16:05:43.743Z,4.80
2022-08-29T16:08:16.492Z,4.88
2022-08-29T16:10:44.909Z,5.97
2022-08-29T16:13:11.732Z,6.70
2022-08-29T16:15:38.687Z,5.13
2022-08-29T16:18:06.633Z,5.00
2022-08-29T16:20:34.069Z,4.82
2022-08-29T16:23:01.645Z,5.72
2022-08-29T16:25:30.988Z,5.07
2022-08-29T16:28:00.116Z,5.05
2022-08-29T16:30:27.110Z,5.70
2022-08-29T16:32:54.712Z,6.03
2022-08-29T16:35:21.184Z,5.05
2022-08-29T16:38:02.670Z,7.63
2022-08-29T16:40:29.481Z,6.25
2022-08-29T16:42:56.476Z,6.63
2022-08-29T16:45:23.470Z,5.82
2022-08-29T16:47:52.148Z,8.13
2022-08-29T16:50:22.558Z,6.18
2022-08-29T16:52:49.135Z,5.72
2022-08-29T16:55:15.596Z,5.20
2022-08-29T16:58:01.977Z,5.97
2022-08-29T17:00:28.402Z,6.78
2022-08-29T17:02:54.904Z,5.25
2022-08-29T17:05:21.357Z,8.82
2022-08-29T17:07:49.675Z,7.97
2022-08-29T17:10:16.203Z,6.03
2022-08-29T17:12:42.571Z,7.07
2022-08-29T17:15:09.153Z,6.72
2022-08-29T17:17:35.695Z,6.93
2022-08-29T17:20:02.205Z,4.80
2022-08-29T17:22:28.676Z,5.47
2022-08-29T17:24:55.146Z,5.88
2022-08-29T17:27:22.299Z,6.40
2022-08-29T17:29:50.405Z,6.47
2022-08-29T17:32:17.115Z,6.60
2022-08-29T17:34:43.990Z,5.00
2022-08-29T17:37:10.995Z,5.10
2022-08-29T17:39:40.005Z,5.28
2022-08-29T17:42:06.903Z,6.00
2022-08-29T17:44:34.371Z,7.10
2022-08-29T17:47:01.009Z,5.85
2022-08-29T17:49:28.283Z,5.45
2022-08-29T17:51:55.200Z,5.35
2022-08-29T17:54:23.926Z,6.75
2022-08-29T17:56:56.579Z,8.55
2022-08-29T17:59:27.137Z,7.35
2022-08-29T18:01:54.635Z,5.63
2022-08-29T18:04:22.205Z,6.43
2022-08-29T18:06:49.262Z,8.43
2022-08-29T18:09:16.595Z,6.22
2022-08-29T18:11:46.505Z,6.82
2022-08-29T18:14:13.067Z,7.38
2022-08-29T18:16:39.553Z,8.48
2022-08-29T18:19:06.775Z,6.38
2022-08-29T18:21:33.561Z,7.65
2022-08-29T18:24:00.121Z,6.65
2022-08-29T18:26:26.762Z,7.25
2022-08-29T18:28:54.605Z,6.82
2022-08-29T18:31:21.730Z,7.53
2022-08-29T18:34:03.895Z,7.95
2022-08-29T18:36:31.900Z,7.00
2022-08-29T18:38:59.001Z,7.95
2022-08-29T18:41:25.681Z,9.07
2022-08-29T18:43:52.088Z,7.25
2022-08-29T18:46:18.989Z,9.05
2022-08-29T18:48:46.267Z,11.13
2022-08-29T18:51:13.501Z,7.07
2022-08-29T18:53:40.257Z,7.93
2022-08-29T18:56:07.209Z,10.55
2022-08-29T18:58:35.124Z,8.13
2022-08-29T19:01:28.023Z,8.60
2022-08-29T19:04:00.999Z,8.77
2022-08-29T19:06:28.166Z,10.10
2022-08-29T19:08:56.475Z,8.70
2022-08-29T19:11:23.350Z,8.80
2022-08-29T19:13:52.386Z,7.97
2022-08-29T19:16:20.369Z,8.68
2022-08-29T19:18:46.922Z,7.22
2022-08-29T19:21:14.279Z,9.63
2022-08-29T19:23:52.118Z,9.90
2022-08-29T19:26:24.500Z,8.98
2022-08-29T19:28:53.093Z,7.80
2022-08-29T19:31:22.744Z,9.50
2022-08-29T19:33:49.323Z,8.00
2022-08-29T19:36:17.440Z,8.15
2022-08-29T19:38:44.014Z,8.23
2022-08-29T19:41:11.039Z,9.85
2022-08-29T19:43:40.745Z,8.65
2022-08-29T19:46:16.430Z,8.98
2022-08-29T19:48:43.247Z,9.02
2022-08-29T19:51:15.113Z,10.18
2022-08-29T19:53:42.057Z,10.20
2022-08-29T19:56:09.813Z,13.57
2022-08-29T19:58:37.085Z,10.05
2022-08-29T20:01:06.961Z,9.13
2022-08-29T20:03:34.066Z,10.00
2022-08-29T20:06:05.584Z,9.25
2022-08-29T20:08:37.794Z,8.80
2022-08-29T20:11:04.483Z,10.85
2022-08-29T20:13:35.828Z,10.23
2022-08-29T20:16:09.088Z,10.02
2022-08-29T20:18:35.582Z,10.30
2022-08-29T20:21:02.017Z,11.57
2022-08-29T20:23:30.121Z,7.75
2022-08-29T20:25:58.038Z,10.80
2022-08-29T20:28:24.498Z,8.18
2022-08-29T20:30:51.431Z,11.20
2022-08-29T20:33:18.700Z,13.60
2022-08-29T20:36:04.338Z,10.45
2022-08-29T20:38:31.159Z,13.15
2022-08-29T20:40:57.561Z,11.77
2022-08-29T20:43:23.967Z,12.38
2022-08-29T20:45:50.452Z,10.07
2022-08-29T20:48:17.076Z,10.32
2022-08-29T20:50:43.574Z,14.45
2022-08-29T20:53:12.787Z,11.30
2022-08-29T20:55:59.246Z,9.52
2022-08-29T20:58:25.835Z,9.98
2022-08-29T21:00:55.967Z,11.05
2022-08-29T21:03:41.166Z,11.07
2022-08-29T21:06:08.154Z,10.55
2022-08-29T21:08:36.300Z,11.73
2022-08-29T21:11:05.145Z,8.98
2022-08-29T21:13:31.975Z,11.88
2022-08-29T21:15:58.892Z,11.48
2022-08-29T21:18:25.823Z,9.98
2022-08-29T21:20:54.237Z,12.52
2022-08-29T21:23:23.083Z,14.75
2022-08-29T21:25:54.375Z,15.55
2022-08-29T21:28:21.909Z,13.90
2022-08-29T21:30:49.286Z,14.52
2022-08-29T21:33:16.022Z,10.32
2022-08-29T21:35:42.568Z,11.82
2022-08-29T21:38:09.555Z,11.50
2022-08-29T21:40:36.807Z,11.02
2022-08-29T21:43:16.701Z,11.60
2022-08-29T21:45:43.283Z,12.10
2022-08-29T21:48:09.689Z,8.55
2022-08-29T21:50:38.239Z,12.10
2022-08-29T21:53:05.642Z,10.68
2022-08-29T21:55:32.959Z,11.02
2022-08-29T21:58:00.585Z,12.70
2022-08-29T22:00:33.541Z,12.80
2022-08-29T22:03:02.235Z,12.30
2022-08-29T22:05:31.021Z,15.10
2022-08-29T22:07:58.025Z,15.75
2022-08-29T22:10:28.718Z,12.23
2022-08-29T22:12:55.196Z,10.70
2022-08-29T22:15:40.847Z,11.45
2022-08-29T22:18:08.650Z,12.25
2022-08-29T22:20:37.606Z,10.15
2022-08-29T22:23:06.003Z,10.45
2022-08-29T22:25:32.713Z,11.63
2022-08-29T22:27:59.621Z,9.65
2022-08-29T22:30:32.053Z,8.93
2022-08-29T22:33:00.311Z,11.52
2022-08-29T22:35:27.893Z,11.68
2022-08-29T22:37:54.594Z,8.23
2022-08-29T22:40:21.281Z,11.65
2022-08-29T22:42:47.799Z,8.23
2022-08-29T22:45:16.246Z,8.70
2022-08-29T22:47:44.204Z,10.43
2022-08-29T22:50:14.941Z,8.63
2022-08-29T22:52:41.616Z,9.60
2022-08-29T22:55:10.570Z,10.35
2022-08-29T22:57:37.075Z,10.77
2022-08-29T23:00:07.371Z,8.55
2022-08-29T23:02:33.865Z,9.18
2022-08-29T23:05:00.530Z,10.73
2022-08-29T23:07:26.985Z,10.73
2022-08-29T23:09:53.417Z,9.35
2022-08-29T23:12:20.153Z,8.88
2022-08-29T23:14:46.719Z,9.57
2022-08-29T23:17:14.890Z,8.85
2022-08-29T23:19:41.991Z,10.38
2022-08-29T23:22:10.654Z,9.05
2022-08-29T23:24:37.470Z,9.98
2022-08-29T23:27:04.693Z,9.45
2022-08-29T23:29:32.855Z,11.35
2022-08-29T23:32:00.691Z,9.77
2022-08-29T23:34:28.030Z,10.85
2022-08-29T23:36:54.430Z,11.38
2022-08-29T23:39:20.864Z,10.45
2022-08-29T23:41:47.273Z,9.98
2022-08-29T23:44:13.784Z,10.68
2022-08-29T23:46:40.263Z,10.70
2022-08-29T23:49:07.221Z,9.88
2022-08-29T23:51:33.795Z,15.82
2022-08-29T23:54:00.440Z,17.42
2022-08-29T23:56:27.190Z,9.32
2022-08-29T23:58:56.840Z,11.35
